createdAt,value
2022-07-29T00:01:19.046Z,19.70
2022-07-29T00:03:51.892Z,19.67
2022-07-29T00:06:24.099Z,19.64
2022-07-29T00:08:56.449Z,19.61
2022-07-29T00:11:28.697Z,19.56
2022-07-29T00:14:01.210Z,19.53
2022-07-29T00:16:33.536Z,19.47
2022-07-29T00:19:08.504Z,19.44
2022-07-29T00:21:40.777Z,19.40
2022-07-29T00:24:13.991Z,19.36
2022-07-29T00:26:46.276Z,19.31
2022-07-29T00:29:33.708Z,19.29
2022-07-29T00:32:07.535Z,19.26
2022-07-29T00:34:57.484Z,19.23
2022-07-29T00:37:29.754Z,19.17
2022-07-29T00:40:01.925Z,19.14
2022-07-29T00:42:43.471Z,19.11
2022-07-29T00:45:18.526Z,19.06
2022-07-29T00:47:49.253Z,19.01
2022-07-29T00:50:24.722Z,19.00
2022-07-29T00:52:57.678Z,18.96
2022-07-29T00:55:30.193Z,18.90
2022-07-29T00:58:04.049Z,18.83
2022-07-29T01:00:38.031Z,18.79
2022-07-29T01:03:10.444Z,18.70
2022-07-29T01:05:50.458Z,18.70
2022-07-29T01:08:26.206Z,18.67
2022-07-29T01:10:59.127Z,18.63
2022-07-29T01:13:34.345Z,18.59
2022-07-29T01:16:12.680Z,18.55
2022-07-29T01:18:49.114Z,18.54
2022-07-29T01:21:45.376Z,18.49
2022-07-29T01:24:36.050Z,18.46
2022-07-29T01:27:25.445Z,18.36
2022-07-29T01:30:01.077Z,18.43
2022-07-29T01:32:40.787Z,18.40
2022-07-29T01:35:19.704Z,18.28
2022-07-29T01:37:59.024Z,18.31
2022-07-29T01:40:35.658Z,18.26
2022-07-29T01:43:15.021Z,18.26
2022-07-29T01:45:50.229Z,18.22
2022-07-29T01:48:26.900Z,18.14
2022-07-29T01:51:04.553Z,18.05
2022-07-29T01:53:42.518Z,18.20
2022-07-29T01:56:15.717Z,18.17
2022-07-29T01:58:49.813Z,18.17
2022-07-29T02:01:24.119Z,18.19
2022-07-29T02:03:59.373Z,18.19
2022-07-29T02:06:35.423Z,18.20
2022-07-29T02:09:09.245Z,18.20
2022-07-29T02:11:42.839Z,18.21
2022-07-29T02:14:16.707Z,18.20
2022-07-29T02:16:55.550Z,18.20
2022-07-29T02:19:30.121Z,18.22
2022-07-29T02:22:04.520Z,18.24
2022-07-29T02:24:39.736Z,18.24
2022-07-29T02:27:13.138Z,18.27
2022-07-29T02:29:47.737Z,18.19
2022-07-29T02:32:23.258Z,18.31
2022-07-29T02:34:58.107Z,18.33
2022-07-29T02:37:31.762Z,18.25
2022-07-29T02:40:06.371Z,18.35
2022-07-29T02:42:41.079Z,18.37
2022-07-29T02:45:14.794Z,18.33
2022-07-29T02:47:52.121Z,18.40
2022-07-29T02:50:33.956Z,18.43
2022-07-29T02:53:11.369Z,18.43
2022-07-29T02:55:52.962Z,18.45
2022-07-29T02:58:31.462Z,18.47
2022-07-29T03:01:06.627Z,18.49
2022-07-29T03:03:42.372Z,18.52
2022-07-29T03:06:37.459Z,18.63
2022-07-29T03:09:13.746Z,18.58
2022-07-29T03:11:49.714Z,18.56
2022-07-29T03:14:26.732Z,18.54
2022-07-29T03:16:59.941Z,18.59
2022-07-29T03:19:33.667Z,18.61
2022-07-29T03:22:06.626Z,18.65
2022-07-29T03:24:40.422Z,18.69
2022-07-29T03:27:15.360Z,18.72
2022-07-29T03:29:49.938Z,18.70
2022-07-29T03:32:25.201Z,18.70
2022-07-29T03:35:00.189Z,18.73
2022-07-29T03:37:32.661Z,18.76
2022-07-29T03:40:09.715Z,18.75
2022-07-29T03:42:45.406Z,18.76
2022-07-29T03:45:21.335Z,18.79
2022-07-29T03:48:00.908Z,18.77
2022-07-29T03:50:35.369Z,18.82
2022-07-29T03:53:07.788Z,18.87
2022-07-29T03:55:44.955Z,18.91
2022-07-29T03:58:18.245Z,18.93
2022-07-29T04:00:51.326Z,18.91
2022-07-29T04:03:25.666Z,18.89
2022-07-29T04:06:08.989Z,18.98
2022-07-29T04:08:42.295Z,18.92
2022-07-29T04:11:14.930Z,18.94
2022-07-29T04:13:49.947Z,18.96
2022-07-29T04:16:23.348Z,18.95
2022-07-29T04:18:56.845Z,19.03
2022-07-29T04:21:29.386Z,19.05
2022-07-29T04:24:02.946Z,19.07
2022-07-29T04:26:36.966Z,19.07
2022-07-29T04:29:09.321Z,19.15
2022-07-29T04:31:42.359Z,19.09
2022-07-29T04:34:15.602Z,19.15
2022-07-29T04:36:50.074Z,19.13
2022-07-29T04:39:23.156Z,19.05
2022-07-29T04:41:56.459Z,19.17
2022-07-29T04:44:29.797Z,19.20
2022-07-29T04:47:02.524Z,19.24
2022-07-29T04:49:34.805Z,19.21
2022-07-29T04:52:08.080Z,19.20
2022-07-29T04:54:40.354Z,19.30
2022-07-29T04:57:12.831Z,19.29
2022-07-29T04:59:46.089Z,19.33
2022-07-29T05:02:23.113Z,19.38
2022-07-29T05:04:54.839Z,19.42
2022-07-29T05:07:27.162Z,19.46
2022-07-29T05:09:59.562Z,19.44
2022-07-29T05:12:31.924Z,19.47
2022-07-29T05:15:04.070Z,19.48
2022-07-29T05:17:36.419Z,19.55
2022-07-29T05:20:10.898Z,19.57
2022-07-29T05:22:43.083Z,19.60
2022-07-29T05:25:15.480Z,19.62
2022-07-29T05:27:47.796Z,19.68
2022-07-29T05:30:25.253Z,19.73
2022-07-29T05:32:57.660Z,19.79
2022-07-29T05:35:30.626Z,19.82
2022-07-29T05:38:02.978Z,19.85
2022-07-29T05:40:35.425Z,19.89
2022-07-29T05:43:07.536Z,19.95
2022-07-29T05:45:49.990Z,20.03
2022-07-29T05:48:23.329Z,20.01
2022-07-29T05:50:55.787Z,20.06
2022-07-29T05:53:28.269Z,20.17
2022-07-29T05:56:00.556Z,20.21
2022-07-29T05:58:33.175Z,20.24
2022-07-29T06:01:05.925Z,20.32
2022-07-29T06:03:38.936Z,20.41
2022-07-29T06:06:11.592Z,20.45
2022-07-29T06:08:44.117Z,20.56
2022-07-29T06:11:16.547Z,20.68
2022-07-29T06:13:48.662Z,20.75
2022-07-29T06:16:29.920Z,20.75
2022-07-29T06:19:02.607Z,20.84
2022-07-29T06:21:35.549Z,20.94
2022-07-29T06:24:13.515Z,21.05
2022-07-29T06:26:46.234Z,21.14
2022-07-29T06:29:18.445Z,21.23
2022-07-29T06:31:50.785Z,21.31
2022-07-29T06:34:23.280Z,21.36
2022-07-29T06:36:55.691Z,21.42
2022-07-29T06:39:29.110Z,21.51
2022-07-29T06:42:01.423Z,21.51
2022-07-29T06:44:34.908Z,21.71
2022-07-29T06:47:08.774Z,21.75
2022-07-29T06:49:40.940Z,21.80
2022-07-29T06:52:13.032Z,21.93
2022-07-29T06:54:49.138Z,22.04
2022-07-29T07:00:25.574Z,22.16
2022-07-29T07:02:58.105Z,22.36
2022-07-29T07:05:30.529Z,22.49
2022-07-29T07:08:02.800Z,22.59
2022-07-29T07:10:36.453Z,22.73
2022-07-29T07:13:08.978Z,22.85
2022-07-29T07:15:41.263Z,22.96
2022-07-29T07:18:13.506Z,23.03
2022-07-29T07:20:46.718Z,23.08
2022-07-29T07:23:19.028Z,23.10
2022-07-29T07:25:53.539Z,23.10
2022-07-29T07:28:25.789Z,23.11
2022-07-29T07:30:59.295Z,23.10
2022-07-29T07:33:33.431Z,23.14
2022-07-29T07:36:06.250Z,23.15
2022-07-29T07:38:38.551Z,23.18
2022-07-29T07:41:11.370Z,23.22
2022-07-29T07:43:44.060Z,23.25
2022-07-29T07:46:16.864Z,23.26
2022-07-29T07:48:49.717Z,23.32
2022-07-29T07:51:22.054Z,23.28
2022-07-29T07:53:54.332Z,23.38
2022-07-29T07:56:30.658Z,23.41
2022-07-29T07:59:05.863Z,23.40
2022-07-29T08:01:55.008Z,23.39
2022-07-29T08:04:29.601Z,23.40
2022-07-29T08:07:02.996Z,23.46
2022-07-29T08:09:35.604Z,23.52
2022-07-29T08:12:10.176Z,23.53
2022-07-29T08:14:42.475Z,23.54
2022-07-29T08:17:15.013Z,23.53
2022-07-29T08:19:49.383Z,23.55
2022-07-29T08:22:22.204Z,23.57
2022-07-29T08:24:55.694Z,23.63
2022-07-29T08:27:45.505Z,23.66
2022-07-29T08:30:17.899Z,23.71
2022-07-29T08:32:58.129Z,23.79
2022-07-29T08:35:35.071Z,23.77
2022-07-29T08:38:08.256Z,23.84
2022-07-29T08:40:41.843Z,23.89
2022-07-29T08:43:14.280Z,23.91
2022-07-29T08:45:48.640Z,23.91
2022-07-29T08:48:25.743Z,23.96
2022-07-29T08:50:59.264Z,24.03
2022-07-29T08:53:32.884Z,24.07
2022-07-29T08:56:05.445Z,24.14
2022-07-29T08:58:38.733Z,24.19
2022-07-29T09:01:13.952Z,24.24
2022-07-29T09:03:49.598Z,24.28
2022-07-29T09:06:28.976Z,24.32
2022-07-29T09:09:02.510Z,24.37
2022-07-29T09:11:36.386Z,24.44
2022-07-29T09:14:10.833Z,24.50
2022-07-29T09:16:53.661Z,24.59
2022-07-29T09:19:31.531Z,24.57
2022-07-29T09:22:06.142Z,24.71
2022-07-29T09:24:44.111Z,24.68
2022-07-29T09:27:30.036Z,24.80
2022-07-29T09:30:04.712Z,24.87
2022-07-29T09:32:35.861Z,24.88
2022-07-29T09:35:22.704Z,24.91
2022-07-29T09:37:55.662Z,24.92
2022-07-29T09:40:29.566Z,24.92
2022-07-29T09:43:11.853Z,24.93
2022-07-29T09:45:44.692Z,24.93
2022-07-29T09:48:22.195Z,24.92
2022-07-29T09:50:57.024Z,24.89
2022-07-29T09:53:35.230Z,24.90
2022-07-29T09:56:09.126Z,24.89
2022-07-29T09:58:42.033Z,24.88
2022-07-29T10:01:15.152Z,24.86
2022-07-29T10:03:56.125Z,24.86
2022-07-29T10:06:29.567Z,24.79
2022-07-29T10:09:13.246Z,24.82
2022-07-29T10:12:04.328Z,24.91
2022-07-29T10:14:37.418Z,25.02
2022-07-29T10:17:11.293Z,25.28
2022-07-29T10:19:45.364Z,25.39
2022-07-29T10:22:43.287Z,25.48
2022-07-29T10:25:12.259Z,25.74
2022-07-29T10:27:43.518Z,26.03
2022-07-29T10:30:17.487Z,26.23
2022-07-29T10:33:18.256Z,26.42
2022-07-29T10:36:04.411Z,26.64
2022-07-29T10:38:58.071Z,26.91
2022-07-29T10:41:47.763Z,27.05
2022-07-29T10:44:24.135Z,27.30
2022-07-29T10:46:57.051Z,27.46
2022-07-29T10:49:31.260Z,27.75
2022-07-29T10:52:09.596Z,27.95
2022-07-29T10:54:53.757Z,28.08
2022-07-29T10:57:53.926Z,28.23
2022-07-29T11:00:35.382Z,28.41
2022-07-29T11:03:10.803Z,28.57
2022-07-29T11:05:59.403Z,28.68
2022-07-29T11:08:32.255Z,28.67
2022-07-29T11:11:39.763Z,28.70
2022-07-29T11:14:16.640Z,28.55
2022-07-29T11:17:06.402Z,28.65
2022-07-29T11:19:44.745Z,28.63
2022-07-29T11:22:36.520Z,28.67
2022-07-29T11:25:19.231Z,28.68
2022-07-29T11:31:14.370Z,28.88
2022-07-29T11:36:59.448Z,28.85
2022-07-29T11:39:36.292Z,29.02
2022-07-29T11:42:46.566Z,29.01
2022-07-29T11:45:43.489Z,28.91
2022-07-29T11:48:28.352Z,28.80
2022-07-29T11:51:11.013Z,28.80
2022-07-29T11:53:52.452Z,28.79
2022-07-29T11:56:28.572Z,29.12
2022-07-29T11:59:08.410Z,29.25
2022-07-29T12:02:02.441Z,29.36
2022-07-29T12:04:53.943Z,29.48
2022-07-29T12:07:35.093Z,29.54
2022-07-29T12:10:11.441Z,29.65
2022-07-29T12:12:56.634Z,29.70
2022-07-29T12:15:46.298Z,29.70
2022-07-29T12:21:18.340Z,29.74
2022-07-29T12:24:05.465Z,29.72
2022-07-29T12:26:53.315Z,29.90
2022-07-29T12:29:35.030Z,29.95
2022-07-29T12:32:14.698Z,30.04
2022-07-29T12:34:52.214Z,30.07
2022-07-29T12:37:37.610Z,30.07
2022-07-29T12:40:17.642Z,30.02
2022-07-29T12:43:11.450Z,30.07
2022-07-29T12:45:46.688Z,30.01
2022-07-29T12:48:19.531Z,30.06
2022-07-29T12:51:01.004Z,30.18
2022-07-29T12:53:34.224Z,30.18
2022-07-29T12:59:25.963Z,30.09
2022-07-29T13:02:01.063Z,30.18
2022-07-29T13:04:37.940Z,30.34
2022-07-29T13:07:12.074Z,30.41
2022-07-29T13:09:48.138Z,30.52
2022-07-29T13:12:21.931Z,30.68
2022-07-29T13:14:54.161Z,30.67
2022-07-29T13:17:32.704Z,30.71
2022-07-29T13:20:13.625Z,30.98
2022-07-29T13:22:49.502Z,31.05
2022-07-29T13:25:30.045Z,30.89
2022-07-29T13:28:02.875Z,30.89
2022-07-29T13:30:35.611Z,30.94
2022-07-29T13:33:08.941Z,30.89
2022-07-29T13:35:41.449Z,30.89
2022-07-29T13:38:13.626Z,30.93
2022-07-29T13:40:47.477Z,31.10
2022-07-29T13:43:19.749Z,31.18
2022-07-29T13:45:52.069Z,31.37
2022-07-29T13:48:24.611Z,31.51
2022-07-29T13:50:56.929Z,31.59
2022-07-29T13:53:30.177Z,31.43
2022-07-29T13:56:02.580Z,31.53
2022-07-29T13:58:35.115Z,31.79
2022-07-29T14:01:07.254Z,31.85
2022-07-29T14:03:45.666Z,32.05
2022-07-29T14:06:18.398Z,31.81
2022-07-29T14:08:54.555Z,31.89
2022-07-29T14:11:26.836Z,31.50
2022-07-29T14:13:59.139Z,31.07
2022-07-29T14:16:31.439Z,30.78
2022-07-29T14:19:04.290Z,30.47
2022-07-29T14:21:36.969Z,30.25
2022-07-29T14:24:17.718Z,30.43
2022-07-29T14:26:54.087Z,30.67
2022-07-29T14:29:36.968Z,30.71
2022-07-29T14:32:12.584Z,30.71
2022-07-29T14:34:45.030Z,30.89
2022-07-29T14:37:17.385Z,31.15
2022-07-29T14:39:49.465Z,31.21
2022-07-29T14:42:22.046Z,31.18
2022-07-29T14:44:54.410Z,31.41
2022-07-29T14:47:27.533Z,31.43
2022-07-29T14:50:00.871Z,31.40
2022-07-29T14:52:33.103Z,31.40
2022-07-29T14:55:06.127Z,31.62
2022-07-29T14:57:56.387Z,31.57
2022-07-29T15:00:34.532Z,31.95
2022-07-29T15:03:06.930Z,32.20
2022-07-29T15:05:43.782Z,31.94
2022-07-29T15:08:15.971Z,31.62
2022-07-29T15:10:48.144Z,31.63
2022-07-29T15:13:20.866Z,31.77
2022-07-29T15:15:57.002Z,31.56
2022-07-29T15:18:32.743Z,31.19
2022-07-29T15:21:08.695Z,30.88
2022-07-29T15:23:41.090Z,30.75
2022-07-29T15:26:13.348Z,30.69
2022-07-29T15:28:45.623Z,30.54
2022-07-29T15:31:19.939Z,30.59
2022-07-29T15:33:57.581Z,30.67
2022-07-29T15:37:00.908Z,30.71
2022-07-29T15:39:23.470Z,30.58
2022-07-29T15:41:56.242Z,30.69
2022-07-29T15:44:28.909Z,30.83
2022-07-29T15:47:05.738Z,30.78
2022-07-29T15:49:48.434Z,30.84
2022-07-29T15:52:25.369Z,30.73
2022-07-29T15:54:59.201Z,30.52
2022-07-29T15:57:31.771Z,30.34
2022-07-29T16:00:04.774Z,30.29
2022-07-29T16:02:40.212Z,30.29
2022-07-29T16:05:12.823Z,30.22
2022-07-29T16:07:45.379Z,30.06
2022-07-29T16:10:17.542Z,30.00
2022-07-29T16:12:49.635Z,29.98
2022-07-29T16:15:21.897Z,30.11
2022-07-29T16:17:54.415Z,30.19
2022-07-29T16:20:26.685Z,30.13
2022-07-29T16:22:59.912Z,30.09
2022-07-29T16:25:57.430Z,30.11
2022-07-29T16:28:24.329Z,30.02
2022-07-29T16:30:57.472Z,29.84
2022-07-29T16:33:54.851Z,29.56
2022-07-29T16:36:22.893Z,29.55
2022-07-29T16:38:55.705Z,29.46
2022-07-29T16:41:29.841Z,29.34
2022-07-29T16:44:02.094Z,29.30
2022-07-29T16:46:37.843Z,29.31
2022-07-29T16:49:12.691Z,29.21
2022-07-29T16:51:51.558Z,29.25
2022-07-29T16:54:24.210Z,29.21
2022-07-29T16:56:57.737Z,29.21
2022-07-29T16:59:30.435Z,29.20
2022-07-29T17:02:03.627Z,29.17
2022-07-29T17:04:36.814Z,29.13
2022-07-29T17:07:09.574Z,29.09
2022-07-29T17:09:41.768Z,29.01
2022-07-29T17:12:13.854Z,28.96
2022-07-29T17:14:46.722Z,28.94
2022-07-29T17:17:20.958Z,28.79
2022-07-29T17:20:12.596Z,28.80
2022-07-29T17:22:50.086Z,28.71
2022-07-29T17:25:23.590Z,28.68
2022-07-29T17:28:00.693Z,28.63
2022-07-29T17:30:33.620Z,28.60
2022-07-29T17:33:06.239Z,28.57
2022-07-29T17:35:55.836Z,28.54
2022-07-29T17:38:28.299Z,28.51
2022-07-29T17:41:00.660Z,28.47
2022-07-29T17:43:33.080Z,28.41
2022-07-29T17:46:05.443Z,28.35
2022-07-29T17:48:38.017Z,28.31
2022-07-29T17:51:10.716Z,28.23
2022-07-29T17:53:43.002Z,28.19
2022-07-29T17:56:15.712Z,28.16
2022-07-29T17:58:48.853Z,28.02
2022-07-29T18:01:21.606Z,28.12
2022-07-29T18:03:57.200Z,28.08
2022-07-29T18:06:32.013Z,27.97
2022-07-29T18:09:04.707Z,28.02
2022-07-29T18:11:37.591Z,28.01
2022-07-29T18:14:11.405Z,27.98
2022-07-29T18:16:43.527Z,27.99
2022-07-29T18:19:16.494Z,28.00
2022-07-29T18:21:54.134Z,27.95
2022-07-29T18:24:29.470Z,27.79
2022-07-29T18:27:02.373Z,27.70
2022-07-29T18:29:35.035Z,27.60
2022-07-29T18:32:09.745Z,27.53
2022-07-29T18:34:40.476Z,27.40
2022-07-29T18:37:12.601Z,27.30
2022-07-29T18:39:44.782Z,27.21
2022-07-29T18:42:17.103Z,27.14
2022-07-29T18:44:49.878Z,27.08
2022-07-29T18:47:22.169Z,27.00
2022-07-29T18:49:54.439Z,26.85
2022-07-29T18:52:26.701Z,26.80
2022-07-29T18:54:58.987Z,26.74
2022-07-29T18:57:53.623Z,26.67
2022-07-29T19:00:24.908Z,26.59
2022-07-29T19:02:57.897Z,26.52
2022-07-29T19:05:30.311Z,26.43
2022-07-29T19:08:02.603Z,26.36
2022-07-29T19:10:34.809Z,26.28
2022-07-29T19:13:06.945Z,26.21
2022-07-29T19:15:39.280Z,26.15
2022-07-29T19:18:13.332Z,26.09
2022-07-29T19:20:45.620Z,26.01
2022-07-29T19:23:18.693Z,25.94
2022-07-29T19:25:53.726Z,25.85
2022-07-29T19:28:27.742Z,25.79
2022-07-29T19:31:00.787Z,25.74
2022-07-29T19:33:33.422Z,25.69
2022-07-29T19:36:05.857Z,25.63
2022-07-29T19:38:39.599Z,25.49
2022-07-29T19:41:13.073Z,25.53
2022-07-29T19:43:50.942Z,25.44
2022-07-29T19:46:29.034Z,25.41
2022-07-29T19:49:01.857Z,25.38
2022-07-29T19:51:34.131Z,25.32
2022-07-29T19:54:07.324Z,25.28
2022-07-29T19:56:42.072Z,25.24
2022-07-29T19:59:39.147Z,25.20
2022-07-29T20:02:12.555Z,25.16
2022-07-29T20:04:45.147Z,25.11
2022-07-29T20:07:18.317Z,25.08
2022-07-29T20:09:50.491Z,25.07
2022-07-29T20:12:23.650Z,25.01
2022-07-29T20:14:56.148Z,24.95
2022-07-29T20:17:29.014Z,24.91
2022-07-29T20:20:02.599Z,24.86
2022-07-29T20:22:35.055Z,24.80
2022-07-29T20:25:09.884Z,24.78
2022-07-29T20:27:43.148Z,24.73
2022-07-29T20:30:16.308Z,24.55
2022-07-29T20:32:50.660Z,24.66
2022-07-29T20:35:23.368Z,24.64
2022-07-29T20:37:56.852Z,24.59
2022-07-29T20:40:29.817Z,24.60
2022-07-29T20:43:02.266Z,24.58
2022-07-29T20:45:34.734Z,24.55
2022-07-29T20:48:08.238Z,24.50
2022-07-29T20:50:40.870Z,24.50
2022-07-29T20:53:14.996Z,24.49
2022-07-29T20:56:12.586Z,24.47
2022-07-29T21:01:43.748Z,24.41
2022-07-29T21:04:16.683Z,24.39
2022-07-29T21:06:48.945Z,24.38
2022-07-29T21:09:21.229Z,24.36
2022-07-29T21:11:54.023Z,24.35
2022-07-29T21:14:46.812Z,24.35
2022-07-29T21:17:22.743Z,24.33
2022-07-29T21:19:55.469Z,24.30
2022-07-29T21:22:27.844Z,24.28
2022-07-29T21:24:59.920Z,24.26
2022-07-29T21:27:49.920Z,24.23
2022-07-29T21:30:23.387Z,24.17
2022-07-29T21:32:56.636Z,24.16
2022-07-29T21:36:01.614Z,24.13
2022-07-29T21:38:22.661Z,24.08
2022-07-29T21:40:55.265Z,24.03
2022-07-29T21:43:28.703Z,23.98
2022-07-29T21:46:04.157Z,23.90
2022-07-29T21:48:37.624Z,23.87
2022-07-29T21:51:11.282Z,23.72
2022-07-29T21:53:43.651Z,23.78
2022-07-29T21:56:16.099Z,23.68
2022-07-29T21:58:50.819Z,23.73
2022-07-29T22:01:23.226Z,23.71
2022-07-29T22:03:55.857Z,23.69
2022-07-29T22:06:28.224Z,23.57
2022-07-29T22:09:00.379Z,23.64
2022-07-29T22:11:32.908Z,23.59
2022-07-29T22:14:05.179Z,23.57
2022-07-29T22:16:37.805Z,23.50
2022-07-29T22:19:10.397Z,23.55
2022-07-29T22:21:43.138Z,23.54
2022-07-29T22:24:15.529Z,23.51
2022-07-29T22:26:47.783Z,23.53
2022-07-29T22:29:20.175Z,23.51
2022-07-29T22:31:53.615Z,23.52
2022-07-29T22:34:29.090Z,23.51
2022-07-29T22:37:10.147Z,23.47
2022-07-29T22:39:42.187Z,23.46
2022-07-29T22:42:14.448Z,23.36
2022-07-29T22:44:46.681Z,23.42
2022-07-29T22:47:19.295Z,23.39
2022-07-29T22:50:12.267Z,23.35
2022-07-29T22:52:44.690Z,23.33
2022-07-29T22:55:18.573Z,23.35
2022-07-29T22:57:51.172Z,23.33
2022-07-29T23:00:24.263Z,23.32
2022-07-29T23:02:56.746Z,23.29
2022-07-29T23:05:29.097Z,23.24
2022-07-29T23:08:06.785Z,23.25
2022-07-29T23:10:38.917Z,23.23
2022-07-29T23:13:11.341Z,23.18
2022-07-29T23:15:44.402Z,23.05
2022-07-29T23:18:16.931Z,23.12
2022-07-29T23:20:49.015Z,23.13
2022-07-29T23:23:21.289Z,23.08
2022-07-29T23:25:53.698Z,23.01
2022-07-29T23:28:26.282Z,23.03
2022-07-29T23:30:59.596Z,23.03
2022-07-29T23:33:31.888Z,22.97
2022-07-29T23:36:04.758Z,22.99
2022-07-29T23:38:40.890Z,22.96
2022-07-29T23:41:15.004Z,22.95
2022-07-29T23:43:47.141Z,22.91
2022-07-29T23:46:19.359Z,22.89
2022-07-29T23:48:56.293Z,22.82
2022-07-29T23:51:29.706Z,22.85
2022-07-29T23:54:01.843Z,22.81
2022-07-29T23:56:34.039Z,22.80
2022-07-29T23:59:06.343Z,22.80
